Weather at Guelph Airport

Public forecast

Using degrees Celsius for public forecast. Weather courtesy of forecast.io.

Closest aviation weather report (METAR) to Guelph Airport

Report is more than 6 hours old.

Closest report is Waterloo Airport, 10.1 nm (18.7 km) SW. Retrieved 2020/10/29 15:00 UTC (22 hours ago):

CYKF 291500Z AUTO 04003KT 010V070 9SM CLR 07/04 A2978 RMK SLP093

Closest aviation forecast (TAF) to Guelph Airport

Forecast is more than 12 hours old.

Closest forecast is Waterloo Airport, 10.1 nm (18.7 km) SW. Retrieved 2020/10/29 14:39 UTC (22 hours ago):

TAF CYKF 291338Z 2914/3002 VRB03KT P6SM FEW120 OVC240 FM291500 05008KT P6SM FEW020 BKN060 OVC240 FM291900 05012KT P6SM BKN025 OVC050 TEMPO 2919/2923 OVC020 FM292300 03012G22KT P6SM OVC012 TEMPO 2923/3002 5SM -DZ BR OVC008 RMK FCST BASED ON AUTO OBS NXT FCST BY 292000Z